Time;durP1;ratioP1;P1;durP2;ratioP2;P2;SDS_P1;SDS_P2;PMS_P1;PMS_P2;Temp;Humidity;BMP_temperature;BMP_pressure;BME280_temperature;BME280_humidity;BME280_pressure;Samples;Min_cycle;Max_cycle;Signal;HPM_P1;HPM_P2
2024/01/11 00:00:50;;;;;;;45.78;23.75;;;;;;;-2.67;74.04;103558.78;7393074;19;20029;-60
2024/01/11 00:03:18;;;;;;;45.58;23.67;;;;;;;-2.68;74.04;103561.31;7395157;19;20015;-60
2024/01/11 00:05:46;;;;;;;42.88;22.92;;;;;;;-2.69;73.96;103555.25;7395538;19;20014;-60
2024/01/11 00:08:14;;;;;;;43.30;23.38;;;;;;;-2.70;74.39;103564.75;7392836;19;20025;-60
2024/01/11 00:10:43;;;;;;;48.10;24.98;;;;;;;-2.83;74.46;103570.44;7394594;19;20023;-60
2024/01/11 00:13:10;;;;;;;48.97;24.35;;;;;;;-2.71;74.63;103577.66;7393856;19;20018;-60
2024/01/11 00:15:38;;;;;;;46.95;24.42;;;;;;;-2.75;74.79;103576.75;7395206;19;20074;-60
2024/01/11 00:18:07;;;;;;;46.28;25.70;;;;;;;-2.77;74.87;103573.22;7394925;19;20054;-60
2024/01/11 00:20:35;;;;;;;46.15;24.48;;;;;;;-2.62;74.58;103579.66;7390563;19;20329;-58
2024/01/11 00:23:03;;;;;;;48.42;25.35;;;;;;;-2.62;74.30;103570.16;7395042;19;20035;-58
2024/01/11 00:25:31;;;;;;;51.92;25.65;;;;;;;-2.77;74.87;103551.59;7394300;19;20007;-59
2024/01/11 00:27:59;;;;;;;47.88;26.13;;;;;;;-2.93;76.08;103555.50;7393521;19;20554;-59
2024/01/11 00:30:28;;;;;;;50.58;25.98;;;;;;;-2.81;76.18;103561.00;7392054;19;20014;-59
2024/01/11 00:32:56;;;;;;;51.20;26.45;;;;;;;-2.68;75.13;103549.22;7391805;19;20352;-61
2024/01/11 00:35:24;;;;;;;47.25;26.08;;;;;;;-2.72;75.70;103548.28;7394145;19;20410;-58
2024/01/11 00:37:52;;;;;;;48.03;25.27;;;;;;;-2.66;75.49;103547.56;7392769;19;20007;-59
2024/01/11 00:40:20;;;;;;;50.55;26.40;;;;;;;-2.45;75.07;103550.69;7391663;19;20018;-58
2024/01/11 00:42:48;;;;;;;51.53;26.58;;;;;;;-2.39;74.43;103551.72;7393990;19;20021;-59
2024/01/11 00:45:16;;;;;;;49.70;26.83;;;;;;;-2.37;74.17;103548.28;7392454;19;20014;-59
2024/01/11 00:47:44;;;;;;;49.90;26.70;;;;;;;-2.43;74.54;103545.56;7393287;19;20030;-59
2024/01/11 00:50:12;;;;;;;50.65;26.90;;;;;;;-2.43;74.75;103527.41;7391799;19;20022;-59
2024/01/11 00:52:40;;;;;;;51.10;27.73;;;;;;;-2.38;74.46;103515.41;7394057;19;20089;-58
2024/01/11 00:55:08;;;;;;;45.92;25.70;;;;;;;-2.43;74.79;103519.63;7393668;19;20031;-60
2024/01/11 00:57:36;;;;;;;48.67;26.30;;;;;;;-2.42;74.79;103544.72;7394075;19;20371;-60
2024/01/11 01:00:05;;;;;;;51.08;28.35;;;;;;;-2.47;75.02;103531.66;7391165;19;20491;-61
2024/01/11 01:02:33;;;;;;;51.25;27.17;;;;;;;-2.52;74.64;103521.97;7391491;19;20074;-62
2024/01/11 01:05:02;;;;;;;48.33;27.65;;;;;;;-2.39;74.64;103528.38;7393202;19;20487;-58
2024/01/11 01:07:30;;;;;;;50.30;27.42;;;;;;;-2.33;74.12;103524.19;7393055;19;20416;-61
2024/01/11 01:09:58;;;;;;;53.90;29.02;;;;;;;-2.28;73.88;103517.41;7390680;19;20047;-58
2024/01/11 01:12:26;;;;;;;49.85;27.05;;;;;;;-2.39;74.30;103516.25;7393800;19;20043;-58
2024/01/11 01:14:55;;;;;;;49.20;27.10;;;;;;;-2.55;74.48;103506.34;7391268;19;20357;-58
2024/01/11 01:17:23;;;;;;;46.47;26.58;;;;;;;-2.57;74.24;103526.19;7392950;19;20018;-58
2024/01/11 01:19:51;;;;;;;48.90;26.65;;;;;;;-2.52;74.38;103511.59;7391106;19;20014;-57
2024/01/11 01:22:19;;;;;;;48.35;26.90;;;;;;;-2.56;74.10;103509.75;7391740;19;20018;-59
2024/01/11 01:24:47;;;;;;;49.47;26.63;;;;;;;-2.73;74.85;103514.53;7392449;19;20385;-57
2024/01/11 01:27:16;;;;;;;48.70;27.05;;;;;;;-2.73;75.27;103514.53;7392434;19;20026;-57
2024/01/11 01:29:44;;;;;;;50.60;27.70;;;;;;;-2.58;74.48;103516.66;7390329;19;20105;-57
2024/01/11 01:32:13;;;;;;;46.70;25.95;;;;;;;-2.53;74.33;103505.53;7391363;19;20018;-58
2024/01/11 01:34:41;;;;;;;46.05;25.73;;;;;;;-2.48;74.01;103513.44;7392906;19;20022;-58
2024/01/11 01:37:10;;;;;;;46.97;26.25;;;;;;;-2.66;74.01;103489.66;7392426;19;20042;-58
2024/01/11 01:39:38;;;;;;;44.53;25.33;;;;;;;-2.49;74.07;103506.50;7390312;19;20032;-58
2024/01/11 01:42:06;;;;;;;43.97;25.77;;;;;;;-2.64;74.66;103503.50;7392343;19;20019;-58
2024/01/11 01:44:34;;;;;;;47.90;26.30;;;;;;;-2.95;75.45;103490.63;7390232;19;20015;-58
2024/01/11 01:47:04;;;;;;;46.80;25.65;;;;;;;-3.02;76.18;103482.66;7390243;19;20078;-58
2024/01/11 01:49:32;;;;;;;41.72;24.98;;;;;;;-3.01;76.25;103479.25;7390075;19;20014;-58
2024/01/11 01:52:01;;;;;;;44.13;24.77;;;;;;;-2.92;76.47;103465.63;7390351;19;20018;-59
2024/01/11 01:54:32;;;;;;;47.40;25.45;;;;;;;-2.75;75.37;103478.22;7391687;19;20388;-57
2024/01/11 01:57:01;;;;;;;46.95;24.42;;;;;;;-2.63;74.58;103503.56;7391868;19;20014;-58
2024/01/11 01:59:30;;;;;;;46.05;26.10;;;;;;;-2.65;74.61;103506.94;7389980;19;20026;-58
2024/01/11 02:01:58;;;;;;;43.78;24.92;;;;;;;-2.77;74.35;103500.59;7390192;19;20011;-57
2024/01/11 02:04:27;;;;;;;47.20;25.65;;;;;;;-2.88;75.55;103491.66;7391650;19;20064;-58
2024/01/11 02:06:55;;;;;;;44.00;24.48;;;;;;;-2.82;75.54;103497.03;7391410;19;20018;-57
2024/01/11 02:09:24;;;;;;;46.28;26.33;;;;;;;-2.57;74.72;103508.03;7388029;19;20349;-55
2024/01/11 02:11:53;;;;;;;48.08;26.48;;;;;;;-2.64;74.68;103503.50;7391620;19;20433;-58
2024/01/11 02:14:22;;;;;;;44.17;25.45;;;;;;;-2.64;74.18;103487.94;7390304;19;20091;-58
2024/01/11 02:16:50;;;;;;;47.47;26.35;;;;;;;-2.86;75.53;103484.81;7391989;19;20043;-58
2024/01/11 02:19:19;;;;;;;41.28;24.42;;;;;;;-2.68;75.10;103489.59;7389985;19;20017;-54
2024/01/11 02:21:51;;;;;;;44.17;25.60;;;;;;;-2.60;74.29;103498.44;7391407;19;20018;-58
2024/01/11 02:24:20;;;;;;;46.03;24.95;;;;;;;-2.72;74.55;103509.38;7391338;19;20018;-58
2024/01/11 02:27:03;;;;;;;45.15;24.83;;;;;;;-2.68;74.50;103504.28;7390842;19;20090;-59
2024/01/11 02:29:31;;;;;;;47.55;26.45;;;;;;;-2.91;75.20;103496.78;7387985;19;20030;-59
2024/01/11 02:32:02;;;;;;;49.90;26.80;;;;;;;-2.76;75.19;103509.25;7391177;19;20014;-60
2024/01/11 02:34:30;;;;;;;48.13;26.40;;;;;;;-2.62;74.65;103507.03;7390878;19;20010;-58
2024/01/11 02:36:59;;;;;;;47.28;25.10;;;;;;;-2.66;74.59;103512.97;7390360;19;20687;-60
2024/01/11 02:39:27;;;;;;;46.90;24.80;;;;;;;-2.83;74.43;103509.94;7388920;19;20018;-59
2024/01/11 02:41:57;;;;;;;47.55;26.02;;;;;;;-2.90;75.55;103516.69;7390145;19;20023;-60
2024/01/11 02:44:26;;;;;;;46.45;25.23;;;;;;;-2.86;74.83;103509.84;7390442;19;20032;-60
2024/01/11 02:46:54;;;;;;;46.35;25.02;;;;;;;-2.91;75.01;103503.66;7390618;19;20102;-58
2024/01/11 02:49:22;;;;;;;47.05;25.50;;;;;;;-2.97;75.11;103504.41;7387458;19;20034;-58
2024/01/11 02:51:50;;;;;;;45.47;24.55;;;;;;;-2.74;74.47;103505.88;7390534;19;20097;-59
2024/01/11 02:54:18;;;;;;;44.10;24.05;;;;;;;-2.85;73.65;103490.88;7390015;19;20025;-60
2024/01/11 02:56:46;;;;;;;46.78;25.25;;;;;;;-2.92;74.36;103507.97;7396844;19;20022;-59
2024/01/11 02:59:14;;;;;;;47.53;25.67;;;;;;;-2.97;74.85;103481.94;7395957;19;20026;-59
2024/01/11 03:01:42;;;;;;;46.85;24.17;;;;;;;-2.80;73.93;103495.34;7395498;19;20022;-62
2024/01/11 03:04:10;;;;;;;49.05;26.83;;;;;;;-2.82;73.67;103483.19;7397129;19;20022;-62
2024/01/11 03:06:38;;;;;;;44.22;25.55;;;;;;;-2.95;74.61;103507.91;7397518;19;20018;-62
2024/01/11 03:09:06;;;;;;;46.10;25.48;;;;;;;-2.79;74.11;103506.56;7395636;19;20385;-62
2024/01/11 03:11:34;;;;;;;45.70;25.20;;;;;;;-2.82;73.95;103510.00;7397558;19;20020;-62
2024/01/11 03:14:03;;;;;;;46.17;24.17;;;;;;;-2.74;73.47;103523.16;7396783;19;20489;-62
2024/01/11 03:16:31;;;;;;;46.40;25.25;;;;;;;-2.86;73.50;103535.78;7397407;19;20129;-62
2024/01/11 03:18:59;;;;;;;44.90;25.50;;;;;;;-2.83;73.42;103520.31;7395849;19;20047;-62
2024/01/11 03:21:27;;;;;;;46.38;25.30;;;;;;;-3.05;73.58;103495.50;7394940;19;20040;-63
2024/01/11 03:23:55;;;;;;;49.33;26.05;;;;;;;-2.89;73.92;103500.28;7396690;19;20412;-63
2024/01/11 03:26:23;;;;;;;50.83;27.38;;;;;;;-3.07;73.94;103508.44;7396591;19;20074;-61
2024/01/11 03:28:51;;;;;;;51.35;26.75;;;;;;;-3.32;75.69;103516.34;7393162;19;20025;-61
2024/01/11 03:31:19;;;;;;;53.88;27.92;;;;;;;-3.02;74.62;103513.75;7396687;19;20487;-60
2024/01/11 03:33:47;;;;;;;52.33;27.85;;;;;;;-2.98;73.78;103516.50;7396701;19;20051;-59
2024/01/11 03:36:15;;;;;;;51.22;27.75;;;;;;;-3.09;74.30;103511.81;7396585;19;20023;-60
2024/01/11 03:38:43;;;;;;;55.00;28.20;;;;;;;-3.13;74.72;103508.25;7395767;19;20018;-55
2024/01/11 03:41:11;;;;;;;54.70;27.08;;;;;;;-2.97;74.29;103507.88;7396723;19;20018;-55
2024/01/11 03:43:39;;;;;;;53.53;28.02;;;;;;;-2.78;73.26;103498.00;7396431;19;20063;-58
2024/01/11 03:46:07;;;;;;;49.42;26.23;;;;;;;-2.96;72.94;103488.00;7399697;19;20068;-57
2024/01/11 03:48:38;;;;;;;51.83;26.13;;;;;;;-2.96;72.78;103490.59;7397584;19;20627;-56
2024/01/11 03:51:06;;;;;;;48.20;25.40;;;;;;;-2.96;72.75;103506.16;7397125;19;20471;-58
2024/01/11 03:53:36;;;;;;;46.95;24.45;;;;;;;-3.23;73.13;103488.13;7396136;19;20029;-55
2024/01/11 03:56:05;;;;;;;47.15;25.65;;;;;;;-3.35;74.03;103493.84;7396513;19;20018;-59
2024/01/11 03:58:36;;;;;;;46.28;26.02;;;;;;;-3.20;74.13;103491.69;7395976;19;20029;-57
2024/01/11 04:01:04;;;;;;;48.97;25.70;;;;;;;-3.13;73.42;103495.31;7395389;19;20063;-58
2024/01/11 04:03:32;;;;;;;49.60;26.73;;;;;;;-3.16;73.75;103490.06;7395743;19;20022;-58
2024/01/11 04:06:00;;;;;;;49.10;27.02;;;;;;;-3.13;73.40;103507.38;7395916;19;20015;-59
2024/01/11 04:08:29;;;;;;;49.72;26.33;;;;;;;-3.15;73.08;103517.72;7393301;19;20015;-59
2024/01/11 04:10:57;;;;;;;47.97;25.75;;;;;;;-2.96;72.42;103534.66;7393004;19;20031;-59
2024/01/11 04:13:25;;;;;;;48.75;25.35;;;;;;;-2.93;71.97;103549.44;7395468;19;20047;-58
2024/01/11 04:15:53;;;;;;;48.03;25.92;;;;;;;-2.99;72.33;103555.31;7394972;19;20018;-59
2024/01/11 04:18:21;;;;;;;50.72;26.40;;;;;;;-2.98;72.31;103565.75;7394890;19;20014;-59
2024/01/11 04:20:49;;;;;;;51.25;27.23;;;;;;;-3.04;72.13;103562.09;7394018;19;20059;-59
2024/01/11 04:23:17;;;;;;;52.00;26.33;;;;;;;-3.21;72.48;103559.88;7393095;19;20039;-59
2024/01/11 04:25:45;;;;;;;48.85;25.75;;;;;;;-2.99;72.49;103557.91;7394816;19;20036;-59
2024/01/11 04:28:13;;;;;;;48.70;26.20;;;;;;;-2.96;72.16;103552.81;7394417;19;20375;-58
2024/01/11 04:30:41;;;;;;;49.67;26.23;;;;;;;-2.84;71.93;103554.84;7392271;19;20050;-56
2024/01/11 04:33:10;;;;;;;48.47;25.52;;;;;;;-2.93;71.81;103541.66;7394188;19;20022;-57
2024/01/11 04:35:38;;;;;;;45.05;24.05;;;;;;;-2.95;72.27;103547.66;7394202;19;20035;-58
2024/01/11 04:38:06;;;;;;;45.53;24.23;;;;;;;-2.82;71.98;103542.81;7394374;19;20084;-57
2024/01/11 04:40:34;;;;;;;43.42;23.35;;;;;;;-2.89;71.64;103559.03;7391815;19;20047;-56
2024/01/11 04:43:02;;;;;;;44.45;25.33;;;;;;;-3.11;73.04;103573.09;7393843;19;20018;-58
2024/01/11 04:45:30;;;;;;;46.97;23.77;;;;;;;-3.01;72.28;103562.19;7393682;19;20487;-58
2024/01/11 04:47:58;;;;;;;46.72;24.88;;;;;;;-2.91;72.66;103556.38;7393711;19;20397;-57
2024/01/11 04:50:26;;;;;;;42.55;23.38;;;;;;;-2.70;72.27;103554.38;7391672;19;20026;-58
2024/01/11 04:52:54;;;;;;;43.95;23.08;;;;;;;-2.64;71.80;103548.47;7393880;19;20040;-58
2024/01/11 04:55:22;;;;;;;43.47;22.98;;;;;;;-2.93;72.21;103532.16;7393720;19;20047;-58
2024/01/11 04:57:50;;;;;;;45.30;24.20;;;;;;;-2.97;73.46;103526.00;7393564;19;20022;-58
2024/01/11 05:00:18;;;;;;;44.25;24.67;;;;;;;-2.92;73.39;103531.31;7391190;19;20086;-57
2024/01/11 05:02:46;;;;;;;46.05;24.92;;;;;;;-3.04;73.35;103525.81;7393737;19;20022;-58
2024/01/11 05:05:14;;;;;;;46.95;24.35;;;;;;;-3.29;74.44;103482.78;7391557;19;20022;-58
2024/01/11 05:07:42;;;;;;;45.60;24.33;;;;;;;-3.09;74.33;103502.34;7392407;19;20438;-57
2024/01/11 05:10:10;;;;;;;47.20;25.40;;;;;;;-2.95;74.41;103495.81;7391034;19;20443;-56
2024/01/11 05:12:38;;;;;;;47.22;24.88;;;;;;;-2.91;74.48;103485.53;7392703;19;20556;-58
2024/01/11 05:15:10;;;;;;;45.05;24.33;;;;;;;-2.80;74.29;103473.72;7392661;19;20096;-60
2024/01/11 05:17:38;;;;;;;46.30;24.58;;;;;;;-2.76;74.11;103473.84;7392776;19;20014;-58
2024/01/11 05:20:06;;;;;;;48.90;25.90;;;;;;;-2.60;74.13;103453.47;7388147;19;20446;-58
2024/01/11 05:22:34;;;;;;;45.70;25.52;;;;;;;-2.55;74.16;103463.13;7392553;19;20021;-58
2024/01/11 05:25:02;;;;;;;52.95;27.10;;;;;;;-2.56;74.12;103476.03;7392522;19;20553;-58
2024/01/11 05:27:30;;;;;;;53.75;26.30;;;;;;;-2.36;73.74;103476.56;7392549;19;20035;-58
2024/01/11 05:29:58;;;;;;;51.53;25.83;;;;;;;-2.40;73.34;103492.84;7390975;19;20344;-58
2024/01/11 05:32:27;;;;;;;51.63;27.38;;;;;;;-2.72;74.49;103488.63;7392783;19;20035;-59
2024/01/11 05:34:55;;;;;;;50.65;26.88;;;;;;;-2.79;75.90;103460.78;7392439;19;20026;-58
2024/01/11 05:37:23;;;;;;;52.60;27.27;;;;;;;-2.64;75.84;103460.28;7392332;19;20039;-58
2024/01/11 05:39:51;;;;;;;55.03;26.27;;;;;;;-2.41;75.19;103473.81;7390553;19;20057;-58
2024/01/11 05:42:19;;;;;;;56.25;27.70;;;;;;;-2.48;75.34;103469.31;7391514;19;20050;-58
2024/01/11 05:44:47;;;;;;;52.20;26.13;;;;;;;-2.44;75.93;103453.03;7393831;19;20022;-58
2024/01/11 05:47:15;;;;;;;53.92;27.25;;;;;;;-2.43;75.69;103436.59;7390423;19;20031;-58
2024/01/11 05:49:43;;;;;;;55.58;26.60;;;;;;;-2.35;76.10;103440.25;7389837;19;20266;-58
2024/01/11 05:52:11;;;;;;;54.03;27.27;;;;;;;-2.16;75.29;103456.25;7391805;19;20019;-58
2024/01/11 05:54:39;;;;;;;50.95;26.35;;;;;;;-2.25;75.22;103451.69;7391002;19;20026;-57
2024/01/11 05:57:07;;;;;;;55.88;26.83;;;;;;;-2.27;75.69;103456.00;7391790;19;20026;-57
2024/01/11 05:59:35;;;;;;;56.05;28.17;;;;;;;-2.28;75.46;103449.06;7391592;19;20014;-56
2024/01/11 06:02:03;;;;;;;51.67;26.25;;;;;;;-2.26;75.39;103442.16;7391132;19;20033;-57
2024/01/11 06:04:32;;;;;;;54.60;26.10;;;;;;;-2.29;75.44;103432.63;7391536;19;20026;-58
2024/01/11 06:07:00;;;;;;;51.22;26.30;;;;;;;-2.17;75.54;103436.34;7391148;19;20010;-57
2024/01/11 06:09:28;;;;;;;49.60;24.33;;;;;;;-1.99;74.77;103431.53;7387751;19;20094;-57
2024/01/11 06:11:56;;;;;;;57.60;28.20;;;;;;;-2.09;74.96;103429.59;7391329;19;20475;-58
2024/01/11 06:14:24;;;;;;;54.83;27.95;;;;;;;-2.10;74.99;103433.00;7394833;19;20014;-58
2024/01/11 06:16:53;;;;;;;54.75;28.23;;;;;;;-2.10;75.16;103459.88;7391275;19;20018;-59
2024/01/11 06:19:23;;;;;;;58.03;28.77;;;;;;;-2.16;75.79;103454.53;7389197;19;20055;-58
2024/01/11 06:21:51;;;;;;;63.75;29.35;;;;;;;-2.13;75.35;103457.19;7391232;19;20031;-59
2024/01/11 06:24:19;;;;;;;64.97;29.67;;;;;;;-2.16;75.75;103477.00;7390664;19;20041;-59
2024/01/11 06:26:47;;;;;;;59.65;27.77;;;;;;;-2.05;75.66;103475.53;7391275;19;20026;-59
2024/01/11 06:29:15;;;;;;;60.80;28.52;;;;;;;-2.13;75.71;103490.94;7388893;19;20025;-59
2024/01/11 06:31:43;;;;;;;63.75;29.20;;;;;;;-2.24;76.40;103482.03;7394558;19;20014;-58
2024/01/11 06:34:11;;;;;;;64.75;29.85;;;;;;;-2.13;76.28;103471.91;7398513;19;20014;-58
2024/01/11 06:36:39;;;;;;;64.47;28.60;;;;;;;-2.22;76.58;103472.53;7397372;19;20011;-57
2024/01/11 06:39:08;;;;;;;60.38;28.67;;;;;;;-2.26;76.32;103452.56;7396341;19;20031;-57
2024/01/11 06:41:36;;;;;;;58.88;27.73;;;;;;;-2.02;76.64;103470.44;7397930;19;20047;-59
2024/01/11 06:44:04;;;;;;;59.80;28.65;;;;;;;-2.05;76.59;103459.97;7401109;19;20018;-57
2024/01/11 06:46:32;;;;;;;65.22;28.48;;;;;;;-1.98;76.77;103454.06;7397883;19;20535;-58
2024/01/11 06:49:00;;;;;;;62.00;28.98;;;;;;;-2.09;77.36;103460.75;7396065;19;20029;-57
2024/01/11 06:51:28;;;;;;;59.78;29.00;;;;;;;-1.94;77.74;103449.81;7395497;19;20022;-59
2024/01/11 06:53:56;;;;;;;60.75;29.33;;;;;;;-2.07;77.47;103420.97;7397808;19;20023;-58
2024/01/11 06:56:28;;;;;;;63.03;29.05;;;;;;;-1.98;78.20;103439.38;7397279;19;20022;-58
2024/01/11 06:58:56;;;;;;;57.50;26.38;;;;;;;-1.92;77.97;103438.59;7396191;19;20027;-58
2024/01/11 07:01:24;;;;;;;60.45;27.52;;;;;;;-1.85;78.12;103450.88;7395414;19;20113;-57
2024/01/11 07:03:53;;;;;;;58.90;28.13;;;;;;;-1.81;77.95;103449.22;7395350;19;20373;-58
2024/01/11 07:06:21;;;;;;;57.28;27.30;;;;;;;-1.86;78.52;103450.88;7397068;19;20022;-58
2024/01/11 07:08:49;;;;;;;60.58;27.48;;;;;;;-1.66;78.38;103452.16;7397729;19;20405;-58
2024/01/11 07:11:17;;;;;;;57.25;27.05;;;;;;;-1.70;78.11;103465.91;7395113;19;20043;-58
2024/01/11 07:13:45;;;;;;;65.97;28.38;;;;;;;-1.83;78.51;103453.50;7399319;19;20022;-58
2024/01/11 07:16:13;;;;;;;60.70;27.13;;;;;;;-1.83;78.80;103469.97;7397135;19;20094;-58
2024/01/11 07:18:43;;;;;;;62.47;28.13;;;;;;;-1.82;79.22;103465.66;7396494;19;20029;-57
2024/01/11 07:21:11;;;;;;;56.67;27.33;;;;;;;-1.79;79.27;103455.34;7396537;19;20373;-59
2024/01/11 07:23:39;;;;;;;56.25;26.92;;;;;;;-1.67;79.31;103455.59;7394938;19;20019;-57
2024/01/11 07:26:07;;;;;;;62.10;26.88;;;;;;;-1.59;78.81;103453.16;7396591;19;20029;-58
2024/01/11 07:28:36;;;;;;;58.70;27.50;;;;;;;-1.46;78.33;103442.16;7394607;19;20462;-58
2024/01/11 07:31:04;;;;;;;60.47;27.70;;;;;;;-1.54;78.45;103436.81;7394426;19;20019;-58
2024/01/11 07:33:33;;;;;;;57.50;27.35;;;;;;;-1.61;78.83;103439.25;7396771;19;20040;-58
2024/01/11 07:36:01;;;;;;;56.58;27.90;;;;;;;-1.58;78.73;103445.38;7396105;19;20365;-58
2024/01/11 07:38:29;;;;;;;62.05;27.55;;;;;;;-1.54;78.74;103435.94;7395570;19;20490;-59
2024/01/11 07:40:57;;;;;;;64.68;29.73;;;;;;;-1.49;79.08;103436.88;7396074;19;20018;-56
2024/01/11 07:43:26;;;;;;;71.88;29.63;;;;;;;-1.44;78.80;103450.00;7396506;19;20018;-58
2024/01/11 07:46:05;;;;;;;62.92;28.00;;;;;;;-1.31;78.35;103460.63;7395873;19;20023;-58
2024/01/11 07:48:33;;;;;;;59.30;28.02;;;;;;;-1.38;78.31;103469.16;7394811;19;20478;-58
2024/01/11 07:51:04;;;;;;;58.15;27.80;;;;;;;-1.38;78.84;103468.28;7392679;19;20025;-58
2024/01/11 07:53:32;;;;;;;67.75;29.30;;;;;;;-1.21;78.53;103471.22;7397208;19;20042;-59
2024/01/11 07:56:01;;;;;;;69.72;30.95;;;;;;;-1.37;78.56;103476.13;7396380;19;20043;-57
2024/01/11 07:58:29;;;;;;;67.53;29.98;;;;;;;-1.44;79.28;103475.97;7396121;19;20022;-58
2024/01/11 08:00:57;;;;;;;61.47;29.60;;;;;;;-1.35;79.06;103474.44;7393624;19;20035;-59
2024/01/11 08:03:25;;;;;;;65.10;29.08;;;;;;;-1.39;79.15;103476.94;7399683;19;20019;-58
2024/01/11 08:05:53;;;;;;;59.72;28.95;;;;;;;-1.28;79.20;103485.81;7396211;19;20018;-59
2024/01/11 08:08:22;;;;;;;64.82;30.20;;;;;;;-1.24;78.88;103479.84;7395259;19;20022;-58
2024/01/11 08:10:49;;;;;;;63.80;29.55;;;;;;;-1.27;79.07;103474.56;7395263;19;20088;-59
2024/01/11 08:13:21;;;;;;;70.82;31.50;;;;;;;-1.16;79.14;103467.84;7396099;19;20507;-56
2024/01/11 08:15:53;;;;;;;71.68;30.83;;;;;;;-1.02;78.80;103487.19;7396380;19;20022;-58
2024/01/11 08:18:21;;;;;;;68.07;29.80;;;;;;;-0.95;79.34;103482.09;7391787;19;20379;-57
2024/01/11 08:20:49;;;;;;;63.70;30.08;;;;;;;-1.10;79.19;103478.38;7396432;19;20070;-57
2024/01/11 08:23:17;;;;;;;75.40;30.23;;;;;;;-1.06;79.66;103480.19;7394651;19;20014;-57
2024/01/11 08:25:45;;;;;;;74.38;31.27;;;;;;;-1.11;79.40;103465.34;7394485;19;20081;-58
2024/01/11 08:28:13;;;;;;;79.00;33.13;;;;;;;-1.06;79.87;103488.00;7393938;19;20023;-58
2024/01/11 08:30:42;;;;;;;71.22;31.02;;;;;;;-0.97;80.10;103482.09;7394523;19;20360;-57
2024/01/11 08:33:10;;;;;;;71.80;31.77;;;;;;;-0.84;80.20;103477.97;7395509;19;20479;-57
2024/01/11 08:35:40;;;;;;;67.80;30.77;;;;;;;-0.81;79.50;103473.69;7394509;19;20019;-58
2024/01/11 08:38:09;;;;;;;78.10;32.42;;;;;;;-1.06;79.88;103462.00;7398182;19;20121;-59
2024/01/11 08:40:37;;;;;;;75.28;31.67;;;;;;;-0.97;81.03;103471.69;7392687;19;20042;-59
2024/01/11 08:43:06;;;;;;;73.57;32.05;;;;;;;-0.85;80.35;103478.81;7395287;19;20093;-61
2024/01/11 08:45:34;;;;;;;71.05;31.08;;;;;;;-0.73;79.52;103486.84;7394554;19;20774;-60
2024/01/11 08:48:02;;;;;;;68.10;30.38;;;;;;;-0.78;79.67;103486.75;7393459;19;20022;-61
2024/01/11 08:50:30;;;;;;;69.05;30.52;;;;;;;-0.68;79.91;103487.81;7391275;19;20022;-60
2024/01/11 08:52:58;;;;;;;76.03;32.88;;;;;;;-0.55;79.17;103489.75;7394100;19;20082;-60
2024/01/11 08:55:26;;;;;;;73.07;31.52;;;;;;;-0.79;79.52;103474.59;7393297;19;20517;-61
2024/01/11 08:57:54;;;;;;;68.13;30.75;;;;;;;-0.67;79.65;103486.94;7393551;19;20015;-60
2024/01/11 09:00:22;;;;;;;68.95;30.58;;;;;;;-0.60;79.65;103482.75;7390939;19;20010;-58
2024/01/11 09:02:50;;;;;;;70.22;30.95;;;;;;;-0.61;79.38;103487.06;7393045;19;20361;-59
2024/01/11 09:05:19;;;;;;;72.28;30.13;;;;;;;-0.47;79.33;103491.63;7393320;19;20031;-59
2024/01/11 09:07:47;;;;;;;74.47;31.92;;;;;;;-0.52;79.27;103481.13;7390519;19;20015;-60
2024/01/11 09:10:15;;;;;;;69.32;30.70;;;;;;;-0.38;79.31;103484.84;7389347;19;20025;-60
2024/01/11 09:12:44;;;;;;;66.60;30.08;;;;;;;-0.41;79.12;103476.97;7392185;19;20014;-60
2024/01/11 09:15:12;;;;;;;69.88;31.45;;;;;;;-0.27;79.12;103475.47;7397029;19;20018;-59
2024/01/11 09:17:40;;;;;;;70.97;32.42;;;;;;;-0.28;78.74;103465.88;7393179;19;20098;-59
2024/01/11 09:20:09;;;;;;;70.07;31.35;;;;;;;-0.17;79.03;103467.78;7390719;19;20043;-59
2024/01/11 09:22:37;;;;;;;71.05;31.65;;;;;;;-0.10;78.74;103469.63;7392452;19;20042;-61
2024/01/11 09:25:07;;;;;;;66.93;30.20;;;;;;;0.00;78.10;103463.72;7392342;19;20034;-59
2024/01/11 09:27:35;;;;;;;71.78;31.25;;;;;;;-0.07;78.57;103459.28;7391282;19;20090;-59
2024/01/11 09:30:04;;;;;;;73.22;31.67;;;;;;;-0.14;78.26;103473.06;7389969;19;20006;-60
2024/01/11 09:32:32;;;;;;;75.60;33.10;;;;;;;-0.25;79.11;103452.06;7391458;19;20026;-61
2024/01/11 09:35:00;;;;;;;73.35;31.25;;;;;;;-0.04;78.97;103469.69;7392225;19;20031;-60
2024/01/11 09:37:30;;;;;;;70.65;31.23;;;;;;;0.06;78.36;103458.56;7392118;19;20010;-60
2024/01/11 09:39:59;;;;;;;66.82;31.77;;;;;;;0.13;78.14;103462.13;7388915;19;20036;-61
2024/01/11 09:42:28;;;;;;;71.07;31.13;;;;;;;0.03;77.95;103458.53;7391504;19;20074;-60
2024/01/11 09:44:56;;;;;;;70.53;32.85;;;;;;;0.11;78.38;103464.72;7391790;19;20447;-59
2024/01/11 09:47:25;;;;;;;72.32;33.45;;;;;;;0.17;78.06;103467.41;7392009;19;20011;-59
2024/01/11 09:49:56;;;;;;;71.30;33.90;;;;;;;0.26;77.94;103470.97;7388584;19;20605;-61
2024/01/11 09:52:26;;;;;;;69.03;33.42;;;;;;;0.27;77.83;103460.59;7390315;19;20070;-61
2024/01/11 09:54:54;;;;;;;63.88;30.75;;;;;;;0.22;77.88;103455.31;7391734;19;20022;-59
2024/01/11 09:57:26;;;;;;;63.80;29.40;;;;;;;0.20;78.24;103449.22;7390341;19;20043;-61
2024/01/11 09:59:56;;;;;;;67.20;30.67;;;;;;;0.20;78.16;103445.75;7390031;19;20019;-61
2024/01/11 10:02:27;;;;;;;65.65;29.83;;;;;;;0.33;78.00;103437.22;7391645;19;20032;-61
2024/01/11 10:04:55;;;;;;;63.63;29.38;;;;;;;0.37;77.80;103435.50;7390840;19;20018;-59
2024/01/11 10:07:27;;;;;;;65.43;30.55;;;;;;;0.39;78.19;103433.81;7399430;19;20036;-61
2024/01/11 10:09:55;;;;;;;64.90;28.50;;;;;;;0.47;78.01;103434.78;7396418;19;20047;-60
2024/01/11 10:12:24;;;;;;;62.80;28.88;;;;;;;0.56;77.78;103441.81;7395166;19;20090;-60
2024/01/11 10:14:54;;;;;;;66.57;29.60;;;;;;;0.66;77.74;103436.72;7399100;19;20014;-60
2024/01/11 10:17:22;;;;;;;63.00;30.13;;;;;;;0.62;77.60;103437.56;7399529;19;20093;-60
2024/01/11 10:19:55;;;;;;;67.30;29.83;;;;;;;0.61;77.76;103435.81;7395688;19;20487;-61
2024/01/11 10:22:23;;;;;;;61.25;28.92;;;;;;;0.79;77.93;103435.13;7398653;19;20377;-61
2024/01/11 10:25:09;;;;;;;63.05;29.10;;;;;;;0.74;77.95;103434.22;7398761;19;20550;-60
2024/01/11 10:27:43;;;;;;;63.85;28.67;;;;;;;0.70;78.34;103446.34;7399215;19;20026;-60
2024/01/11 10:30:20;;;;;;;58.97;28.38;;;;;;;0.69;78.63;103435.91;7395082;19;20014;-61
2024/01/11 10:32:49;;;;;;;63.83;27.90;;;;;;;0.81;78.10;103428.19;7395958;19;20029;-61
2024/01/11 10:35:18;;;;;;;56.63;27.35;;;;;;;0.77;78.64;103426.41;7398490;19;20014;-61
2024/01/11 10:37:53;;;;;;;57.95;27.85;;;;;;;0.96;78.37;103422.25;7397205;19;20026;-61
2024/01/11 10:40:25;;;;;;;60.40;26.33;;;;;;;1.02;77.99;103416.22;7393482;19;20018;-61
2024/01/11 10:42:53;;;;;;;61.75;27.33;;;;;;;1.07;77.77;103414.50;7399179;19;20027;-61
2024/01/11 10:45:21;;;;;;;54.60;25.92;;;;;;;1.10;77.84;103414.53;7397043;19;20027;-61
2024/01/11 10:48:01;;;;;;;57.70;27.40;;;;;;;1.07;77.92;103412.81;7398532;19;20028;-59
2024/01/11 10:50:37;;;;;;;53.80;26.17;;;;;;;1.07;78.48;103419.72;7395312;19;20022;-61
2024/01/11 10:53:20;;;;;;;58.08;25.65;;;;;;;1.13;78.38;103418.06;7395974;19;20022;-58
2024/01/11 10:55:55;;;;;;;56.75;25.40;;;;;;;1.15;78.36;103421.56;7398330;19;20487;-60
2024/01/11 10:58:26;;;;;;;53.85;25.20;;;;;;;1.23;78.57;103425.97;7397773;19;20018;-60
2024/01/11 11:00:59;;;;;;;56.33;26.60;;;;;;;1.36;78.10;103418.25;7394657;19;20349;-60
2024/01/11 11:03:31;;;;;;;56.17;24.67;;;;;;;1.34;77.98;103416.50;7398242;19;20724;-61
2024/01/11 11:06:00;;;;;;;53.97;24.95;;;;;;;1.35;78.15;103402.56;7397568;19;20014;-61
2024/01/11 11:08:29;;;;;;;53.50;25.95;;;;;;;1.33;78.54;103405.16;7396457;19;20597;-62
2024/01/11 11:10:59;;;;;;;54.72;26.00;;;;;;;1.41;78.49;103394.78;7396130;19;20041;-61
2024/01/11 11:13:27;;;;;;;51.42;24.90;;;;;;;1.33;78.70;103394.72;7397920;19;20018;-61
2024/01/11 11:15:57;;;;;;;52.97;24.38;;;;;;;1.20;79.12;103372.88;7395965;19;20070;-61